Time;durP1;ratioP1;P1;durP2;ratioP2;P2;SDS_P1;SDS_P2;PMS_P1;PMS_P2;Temp;Humidity;BMP_temperature;BMP_pressure;BME280_temperature;BME280_humidity;BME280_pressure;Samples;Min_cycle;Max_cycle;Signal;HPM_P1;HPM_P2
2024/02/26 00:01:52;;;;;;;1999.90;999.90;;;11.30;99.90;;;;;;5057667;28;20037;-80
2024/02/26 00:04:18;;;;;;;1999.90;999.90;;;11.30;99.90;;;;;;5056179;28;20033;-80
2024/02/26 00:06:43;;;;;;;1999.90;999.90;;;11.30;99.90;;;;;;5060377;28;20033;-81
2024/02/26 00:09:09;;;;;;;1999.90;999.90;;;11.30;99.90;;;;;;5058235;28;20025;-79
2024/02/26 00:11:36;;;;;;;1999.90;999.90;;;11.30;99.90;;;;;;5056929;28;20025;-80
2024/02/26 00:14:02;;;;;;;1999.90;999.90;;;11.40;99.90;;;;;;5061675;28;20025;-80
2024/02/26 00:16:28;;;;;;;1999.90;999.90;;;11.40;99.90;;;;;;5055679;28;20541;-83
2024/02/26 00:18:53;;;;;;;1999.90;999.90;;;11.50;99.90;;;;;;5055627;28;20045;-80
2024/02/26 00:21:19;;;;;;;1999.90;999.90;;;11.60;99.90;;;;;;5065039;28;20037;-82
2024/02/26 00:23:45;;;;;;;1999.90;999.90;;;11.60;99.90;;;;;;5052112;28;20045;-79
2024/02/26 00:26:10;;;;;;;1999.90;999.90;;;11.60;99.90;;;;;;5069110;28;20036;-80
2024/02/26 00:28:36;;;;;;;1999.90;999.90;;;11.60;99.90;;;;;;5071762;28;20057;-80
2024/02/26 00:31:02;;;;;;;1999.90;999.90;;;11.60;99.90;;;;;;5068873;28;20061;-80
2024/02/26 00:33:28;;;;;;;1999.90;999.90;;;11.50;99.90;;;;;;5070358;28;20100;-80
2024/02/26 00:35:54;;;;;;;1999.90;999.90;;;11.40;99.90;;;;;;5068585;28;20112;-80
2024/02/26 00:38:20;;;;;;;1999.90;999.90;;;11.40;99.90;;;;;;5052147;28;20064;-80
2024/02/26 00:40:46;;;;;;;1999.90;999.90;;;11.50;99.90;;;;;;5049403;28;20037;-80
2024/02/26 00:43:11;;;;;;;1999.90;999.90;;;11.50;99.90;;;;;;5036948;28;20507;-79
2024/02/26 00:45:37;;;;;;;1999.90;999.90;;;11.00;99.90;;;;;;5036822;28;20025;-80
2024/02/26 00:48:05;;;;;;;1999.90;999.90;;;10.60;99.90;;;;;;5080024;28;20018;-83
2024/02/26 00:50:32;;;;;;;1999.90;999.90;;;10.40;99.90;;;;;;5068565;28;20415;-81
2024/02/26 00:52:57;;;;;;;1999.90;999.90;;;10.20;99.90;;;;;;5068287;28;20064;-80
2024/02/26 00:55:23;;;;;;;1999.90;999.90;;;10.10;99.90;;;;;;5037582;28;20384;-79
2024/02/26 00:57:49;;;;;;;1999.90;999.90;;;10.00;99.90;;;;;;5068317;28;20029;-79
2024/02/26 01:00:15;;;;;;;1999.90;999.90;;;10.00;99.90;;;;;;5052299;28;20038;-80
2024/02/26 01:02:46;;;;;;;1999.90;999.90;;;10.00;99.90;;;;;;5070354;28;20514;-79
2024/02/26 01:05:12;;;;;;;1999.90;999.90;;;10.00;99.90;;;;;;5036593;28;20025;-80
2024/02/26 01:07:39;;;;;;;1999.90;999.90;;;10.00;99.90;;;;;;5055939;28;20036;-79
2024/02/26 01:10:06;;;;;;;1999.90;999.90;;;10.10;99.90;;;;;;5051747;28;20434;-79
2024/02/26 01:12:32;;;;;;;1999.90;999.90;;;10.10;99.90;;;;;;5068186;28;20057;-83
2024/02/26 01:14:58;;;;;;;1999.90;999.90;;;10.20;99.90;;;;;;5079223;28;20029;-80
2024/02/26 01:17:24;;;;;;;1999.90;999.90;;;10.30;99.90;;;;;;5053839;28;20048;-83
2024/02/26 01:19:49;;;;;;;1999.90;999.90;;;10.40;99.90;;;;;;5054576;28;20075;-79
2024/02/26 01:22:15;;;;;;;1999.90;999.90;;;10.40;99.90;;;;;;5060609;28;20376;-79
2024/02/26 01:24:40;;;;;;;1999.90;999.90;;;10.50;99.90;;;;;;5054587;28;20071;-80
2024/02/26 01:27:07;;;;;;;1999.90;999.90;;;10.50;99.90;;;;;;5057218;28;20026;-80
2024/02/26 01:29:33;;;;;;;1999.90;999.90;;;10.50;99.90;;;;;;5056284;28;20087;-79
2024/02/26 01:31:59;;;;;;;1999.90;999.90;;;10.50;99.90;;;;;;5055756;28;20032;-79
2024/02/26 01:34:24;;;;;;;1999.90;999.90;;;10.60;99.90;;;;;;5064620;28;20013;-78
2024/02/26 01:36:50;;;;;;;1999.90;999.90;;;10.60;99.90;;;;;;5056519;28;20064;-82
2024/02/26 01:39:16;;;;;;;1999.90;999.90;;;10.70;99.90;;;;;;5054305;28;20111;-83
2024/02/26 01:41:41;;;;;;;1999.90;999.90;;;10.70;99.90;;;;;;5063159;28;20037;-80
2024/02/26 01:44:07;;;;;;;1999.90;999.90;;;10.70;99.90;;;;;;5055773;28;20495;-83
2024/02/26 01:46:35;;;;;;;1999.90;999.90;;;10.80;99.90;;;;;;5055654;28;20491;-80
2024/02/26 01:49:02;;;;;;;1999.90;999.90;;;10.80;99.90;;;;;;5057268;28;20087;-80
2024/02/26 01:51:29;;;;;;;1999.90;999.90;;;11.00;99.90;;;;;;5054376;28;20555;-80
2024/02/26 01:53:55;;;;;;;1999.90;999.90;;;11.00;99.90;;;;;;5053919;28;20036;-80
2024/02/26 01:56:22;;;;;;;1999.90;999.90;;;11.10;99.90;;;;;;5056960;28;20037;-82
2024/02/26 01:58:48;;;;;;;1999.90;999.90;;;11.20;99.90;;;;;;5055421;28;20031;-80
2024/02/26 02:01:18;;;;;;;1999.90;999.90;;;11.30;99.90;;;;;;5055369;28;20136;-82
2024/02/26 02:03:45;;;;;;;1999.90;999.90;;;11.40;99.90;;;;;;5054843;28;20025;-83
2024/02/26 02:06:11;;;;;;;1999.90;999.90;;;11.40;99.90;;;;;;5053825;28;20047;-81
2024/02/26 02:08:38;;;;;;;1999.90;999.90;;;11.50;99.90;;;;;;5060419;28;20029;-80
2024/02/26 02:11:04;;;;;;;1999.90;999.90;;;11.50;99.90;;;;;;5053764;28;20504;-80
2024/02/26 02:13:32;;;;;;;1999.90;999.90;;;11.50;99.90;;;;;;5055370;28;20013;-80
2024/02/26 02:15:58;;;;;;;1999.90;999.90;;;11.50;99.90;;;;;;5053313;28;20499;-83
2024/02/26 02:18:24;;;;;;;1999.90;999.90;;;11.50;99.90;;;;;;5053912;28;20068;-79
2024/02/26 02:20:49;;;;;;;1999.90;999.90;;;11.50;99.90;;;;;;5068543;28;20111;-80
2024/02/26 02:23:15;;;;;;;1999.90;999.90;;;11.60;99.90;;;;;;5060252;28;20021;-80
2024/02/26 02:25:41;;;;;;;1999.90;999.90;;;11.60;99.90;;;;;;5053400;28;20486;-79
2024/02/26 02:28:06;;;;;;;1999.90;999.90;;;11.60;99.90;;;;;;5059917;28;20016;-83
2024/02/26 02:30:33;;;;;;;1999.90;999.90;;;11.50;99.90;;;;;;5056968;28;20033;-79
2024/02/26 02:32:59;;;;;;;1999.90;999.90;;;11.50;99.90;;;;;;5054725;28;20017;-79
2024/02/26 02:35:25;;;;;;;1999.90;999.90;;;11.50;99.90;;;;;;5057101;28;20120;-83
2024/02/26 02:37:52;;;;;;;1999.90;999.90;;;11.50;99.90;;;;;;5052857;28;20512;-83
2024/02/26 02:40:18;;;;;;;1999.90;999.90;;;11.40;99.90;;;;;;5053261;28;20071;-80
2024/02/26 02:42:44;;;;;;;1999.90;999.90;;;11.40;99.90;;;;;;5062745;28;20037;-79
2024/02/26 02:45:10;;;;;;;1999.90;999.90;;;11.40;99.90;;;;;;5053115;28;20025;-80
2024/02/26 02:47:39;;;;;;;1999.90;999.90;;;11.40;99.90;;;;;;5054066;28;20483;-83
2024/02/26 02:50:05;;;;;;;1999.90;999.90;;;11.30;99.90;;;;;;5075505;28;20016;-80
2024/02/26 02:52:30;;;;;;;1999.90;999.90;;;11.30;99.90;;;;;;5054106;28;20033;-80
2024/02/26 02:54:56;;;;;;;1999.90;999.90;;;11.30;99.90;;;;;;5054523;28;20025;-80
2024/02/26 02:57:22;;;;;;;1999.90;999.90;;;11.30;99.90;;;;;;5061224;28;20036;-83
2024/02/26 02:59:48;;;;;;;1999.90;999.90;;;11.30;99.90;;;;;;5052408;28;20035;-83
2024/02/26 03:02:13;;;;;;;1999.90;999.90;;;11.30;99.90;;;;;;5053148;28;20028;-83
2024/02/26 03:04:39;;;;;;;1999.90;999.90;;;11.30;99.90;;;;;;5057146;28;20112;-80
2024/02/26 03:07:05;;;;;;;1999.90;999.90;;;11.20;99.90;;;;;;5052652;28;20028;-80
2024/02/26 03:09:30;;;;;;;1999.90;999.90;;;11.20;99.90;;;;;;5051660;28;20556;-83
2024/02/26 03:11:56;;;;;;;1999.90;999.90;;;11.10;99.90;;;;;;5054216;28;20033;-83
2024/02/26 03:14:22;;;;;;;1999.90;999.90;;;11.20;99.90;;;;;;5052425;28;20545;-80
2024/02/26 03:16:53;;;;;;;1999.90;999.90;;;11.20;99.90;;;;;;5054855;28;20029;-80
2024/02/26 03:19:19;;;;;;;1999.90;999.90;;;11.20;99.90;;;;;;5052830;28;20029;-80
2024/02/26 03:21:45;;;;;;;1999.90;999.90;;;11.20;99.90;;;;;;5053432;28;20443;-80
2024/02/26 03:24:11;;;;;;;1999.90;999.90;;;11.20;99.90;;;;;;5052311;28;20029;-83
2024/02/26 03:26:37;;;;;;;1999.90;999.90;;;11.20;99.90;;;;;;5033831;28;20159;-84
2024/02/26 03:29:03;;;;;;;1999.90;999.90;;;11.20;99.90;;;;;;5047803;28;20100;-80
2024/02/26 03:31:29;;;;;;;1999.90;999.90;;;11.30;99.90;;;;;;5055116;28;20094;-84
2024/02/26 03:33:54;;;;;;;1999.90;999.90;;;11.30;99.90;;;;;;5051664;28;20036;-80
2024/02/26 03:36:21;;;;;;;1999.90;999.90;;;11.30;99.90;;;;;;5053626;28;20033;-80
2024/02/26 03:38:48;;;;;;;1999.90;999.90;;;11.30;99.90;;;;;;5052149;28;20021;-80
2024/02/26 03:41:13;;;;;;;1999.90;999.90;;;11.30;99.90;;;;;;5051922;28;20094;-84
2024/02/26 03:43:39;;;;;;;1999.90;999.90;;;11.30;99.90;;;;;;5060970;28;20028;-80
2024/02/26 03:46:08;;;;;;;1999.90;999.90;;;11.20;99.90;;;;;;5053811;28;20100;-83
2024/02/26 03:48:34;;;;;;;1999.90;999.90;;;11.30;99.90;;;;;;5051955;28;20075;-80
2024/02/26 03:51:00;;;;;;;1999.90;999.90;;;11.20;99.90;;;;;;5064912;28;20033;-80
2024/02/26 03:53:26;;;;;;;1999.90;999.90;;;11.20;99.90;;;;;;5052437;28;20125;-80
2024/02/26 03:55:52;;;;;;;1999.90;999.90;;;11.10;99.90;;;;;;5051885;28;20120;-80
2024/02/26 03:58:18;;;;;;;1999.90;999.90;;;11.10;99.90;;;;;;5060750;28;20036;-80
2024/02/26 04:00:44;;;;;;;1999.90;999.90;;;11.20;99.90;;;;;;5051785;28;20037;-80
2024/02/26 04:03:13;;;;;;;1999.90;999.90;;;11.20;99.90;;;;;;5051808;28;20112;-83
2024/02/26 04:05:38;;;;;;;1999.90;999.90;;;11.20;99.90;;;;;;5061137;28;20039;-80
2024/02/26 04:08:07;;;;;;;1999.90;999.90;;;11.10;99.90;;;;;;5053432;28;20025;-80
2024/02/26 04:10:34;;;;;;;1999.90;999.90;;;11.00;99.90;;;;;;5051671;28;20059;-83
2024/02/26 04:13:00;;;;;;;1999.90;999.90;;;11.00;99.90;;;;;;5058023;28;20029;-83
2024/02/26 04:15:26;;;;;;;1999.90;999.90;;;11.00;99.90;;;;;;5051673;28;20040;-80
2024/02/26 04:17:51;;;;;;;1999.90;999.90;;;11.00;99.90;;;;;;5058676;28;20029;-80
2024/02/26 04:20:17;;;;;;;1999.90;999.90;;;11.00;99.90;;;;;;5055155;28;20041;-80
2024/02/26 04:22:43;;;;;;;1999.90;999.90;;;11.00;99.90;;;;;;5052971;28;20021;-81
2024/02/26 04:25:09;;;;;;;1999.90;999.90;;;11.00;99.90;;;;;;5058822;28;20017;-81
2024/02/26 04:27:34;;;;;;;1999.90;999.90;;;11.00;99.90;;;;;;5057079;28;20494;-83
2024/02/26 04:30:04;;;;;;;1999.90;999.90;;;11.00;99.90;;;;;;5051599;28;20025;-83
2024/02/26 04:32:29;;;;;;;1999.90;999.90;;;10.80;99.90;;;;;;5054896;28;20018;-83
2024/02/26 04:34:55;;;;;;;1999.90;999.90;;;10.80;99.90;;;;;;5052956;28;20028;-80
2024/02/26 04:37:20;;;;;;;1999.90;999.90;;;10.80;99.90;;;;;;5051641;28;20397;-83
2024/02/26 04:39:46;;;;;;;1999.90;999.90;;;10.80;99.90;;;;;;5059777;28;20119;-83
2024/02/26 04:42:12;;;;;;;1999.90;999.90;;;10.80;99.90;;;;;;5053326;28;20021;-80
2024/02/26 04:44:37;;;;;;;1999.90;999.90;;;10.90;99.90;;;;;;5056420;28;20078;-83
2024/02/26 04:47:03;;;;;;;1999.90;999.90;;;10.80;99.90;;;;;;5054736;28;20068;-83
2024/02/26 04:49:29;;;;;;;1999.90;999.90;;;11.00;99.90;;;;;;5056532;28;20033;-80
2024/02/26 04:51:54;;;;;;;1999.90;999.90;;;11.10;99.90;;;;;;5056215;28;20072;-80
2024/02/26 04:54:20;;;;;;;1999.90;999.90;;;11.10;99.90;;;;;;5055195;28;20048;-83
2024/02/26 04:56:48;;;;;;;1999.90;999.90;;;11.30;99.90;;;;;;5055369;28;20025;-80
2024/02/26 04:59:13;;;;;;;1999.90;999.90;;;11.30;99.90;;;;;;5062276;28;20025;-83
2024/02/26 05:01:39;;;;;;;1999.90;999.90;;;11.30;99.90;;;;;;5054897;28;20036;-82
2024/02/26 05:04:05;;;;;;;1999.90;999.90;;;11.20;99.90;;;;;;5054959;28;20499;-80
2024/02/26 05:06:33;;;;;;;1999.90;999.90;;;11.20;99.90;;;;;;5062075;28;20033;-79
2024/02/26 05:08:59;;;;;;;1999.90;999.90;;;11.10;99.90;;;;;;5054639;28;20060;-80
2024/02/26 05:11:25;;;;;;;1999.90;999.90;;;11.10;99.90;;;;;;5060300;28;20065;-82
2024/02/26 05:13:51;;;;;;;1999.90;999.90;;;11.10;99.90;;;;;;5054747;28;20036;-79
2024/02/26 05:16:16;;;;;;;1999.90;999.90;;;11.00;99.90;;;;;;5054263;28;20395;-82
2024/02/26 05:18:42;;;;;;;1999.90;999.90;;;11.00;99.90;;;;;;5057384;28;20068;-79
2024/02/26 05:21:07;;;;;;;1999.90;999.90;;;10.90;99.90;;;;;;5054426;28;20372;-79
2024/02/26 05:23:33;;;;;;;1999.90;999.90;;;10.90;99.90;;;;;;5048532;28;20029;-82
2024/02/26 05:25:59;;;;;;;1999.90;999.90;;;10.80;99.90;;;;;;5057446;28;20033;-80
2024/02/26 05:28:24;;;;;;;1999.90;999.90;;;10.80;99.90;;;;;;5054484;28;20020;-79
2024/02/26 05:30:50;;;;;;;1999.90;999.90;;;10.80;99.90;;;;;;5058137;28;20011;-82
2024/02/26 05:33:16;;;;;;;1999.90;999.90;;;10.80;99.90;;;;;;5055727;28;20104;-82
2024/02/26 05:35:41;;;;;;;1999.90;999.90;;;10.80;99.90;;;;;;5054223;28;20021;-79
2024/02/26 05:38:07;;;;;;;1999.90;999.90;;;10.90;99.90;;;;;;5060613;28;20515;-79
2024/02/26 05:40:33;;;;;;;1999.90;999.90;;;11.00;99.90;;;;;;5054247;28;20025;-79
2024/02/26 05:42:58;;;;;;;1999.90;999.90;;;11.10;99.90;;;;;;5054368;28;20032;-82
2024/02/26 05:45:24;;;;;;;1999.90;999.90;;;11.20;99.90;;;;;;5057118;28;20110;-83
2024/02/26 05:47:49;;;;;;;1999.90;999.90;;;11.20;99.90;;;;;;5055417;28;20031;-83
2024/02/26 05:50:15;;;;;;;1999.90;999.90;;;11.20;99.90;;;;;;5056779;28;20094;-81
2024/02/26 05:52:41;;;;;;;1999.90;999.90;;;11.30;99.90;;;;;;5065670;28;20154;-82
2024/02/26 05:55:07;;;;;;;1999.90;999.90;;;11.40;99.90;;;;;;5072985;28;20457;-79
2024/02/26 05:57:34;;;;;;;1999.90;999.90;;;11.50;99.90;;;;;;5055705;28;20518;-79
2024/02/26 06:00:03;;;;;;;1999.90;999.90;;;11.50;99.90;;;;;;5053657;28;20123;-80
2024/02/26 06:02:30;;;;;;;1999.90;999.90;;;11.60;99.90;;;;;;5053885;28;20026;-79
2024/02/26 06:04:56;;;;;;;1999.90;999.90;;;11.60;99.90;;;;;;5055376;28;20041;-82
2024/02/26 06:07:22;;;;;;;1999.90;999.90;;;11.70;99.90;;;;;;5059666;28;20029;-82
2024/02/26 06:09:48;;;;;;;1999.90;999.90;;;11.70;99.90;;;;;;5073296;28;20028;-79
2024/02/26 06:12:14;;;;;;;1999.90;999.90;;;11.70;99.90;;;;;;5087182;28;20463;-79
2024/02/26 06:14:39;;;;;;;1999.90;999.90;;;11.80;99.90;;;;;;5075006;28;20074;-82
2024/02/26 06:17:06;;;;;;;1999.90;999.90;;;11.80;99.90;;;;;;5059257;28;20053;-82
2024/02/26 06:19:32;;;;;;;1999.90;999.90;;;11.90;99.90;;;;;;5086130;28;20093;-79
2024/02/26 06:22:01;;;;;;;1999.90;999.90;;;11.90;99.90;;;;;;5066400;28;20128;-82
2024/02/26 06:24:26;;;;;;;1999.90;999.90;;;11.90;99.90;;;;;;5053313;28;20495;-83
2024/02/26 06:26:52;;;;;;;1999.90;999.90;;;11.90;99.90;;;;;;5056187;28;20044;-79
2024/02/26 06:29:20;;;;;;;1999.90;999.90;;;12.00;99.90;;;;;;5051625;28;20029;-83
2024/02/26 06:31:48;;;;;;;1999.90;999.90;;;11.90;99.90;;;;;;5052840;28;20025;-79
2024/02/26 06:34:13;;;;;;;1999.90;999.90;;;11.90;99.90;;;;;;5072151;28;20036;-79
2024/02/26 06:36:39;;;;;;;1999.90;999.90;;;11.90;99.90;;;;;;5060235;28;20025;-82
2024/02/26 06:39:05;;;;;;;1999.90;999.90;;;11.90;99.90;;;;;;5071392;28;20024;-82
2024/02/26 06:41:31;;;;;;;1999.90;999.90;;;11.90;99.90;;;;;;5057134;28;20059;-82
2024/02/26 06:43:56;;;;;;;1999.90;999.90;;;11.90;99.90;;;;;;5069529;28;20379;-83
2024/02/26 06:46:23;;;;;;;1999.90;999.90;;;11.90;99.90;;;;;;5062474;28;20036;-82
2024/02/26 06:48:49;;;;;;;1999.90;999.90;;;11.80;99.90;;;;;;5066762;28;20055;-79
2024/02/26 06:51:15;;;;;;;1999.90;999.90;;;11.80;99.90;;;;;;5073674;28;20119;-83
2024/02/26 06:53:40;;;;;;;1999.90;999.90;;;11.70;99.90;;;;;;5065374;28;20038;-82
2024/02/26 06:56:06;;;;;;;1999.90;999.90;;;11.70;99.90;;;;;;5063764;28;20032;-82
2024/02/26 06:58:32;;;;;;;1999.90;999.90;;;11.80;99.90;;;;;;5061614;28;20017;-79
2024/02/26 07:00:58;;;;;;;1999.90;999.90;;;11.80;99.90;;;;;;5051280;28;20040;-83
2024/02/26 07:03:25;;;;;;;1999.90;999.90;;;11.90;99.90;;;;;;5055101;28;20021;-83
2024/02/26 07:05:51;;;;;;;1999.90;999.90;;;11.90;99.90;;;;;;5052525;28;20163;-79
2024/02/26 07:08:17;;;;;;;1999.90;999.90;;;11.90;99.90;;;;;;5051446;28;20032;-79
2024/02/26 07:10:43;;;;;;;1999.90;999.90;;;11.90;99.90;;;;;;5053254;28;20403;-79
2024/02/26 07:13:09;;;;;;;1999.90;999.90;;;11.90;99.90;;;;;;5080240;28;20060;-79
2024/02/26 07:15:34;;;;;;;1999.90;999.90;;;12.00;99.90;;;;;;5090236;28;20041;-78
2024/02/26 07:18:03;;;;;;;1999.90;999.90;;;12.00;99.90;;;;;;5060140;28;20441;-82
2024/02/26 07:20:29;;;;;;;1999.90;999.90;;;12.00;99.90;;;;;;5050711;28;20080;-82
2024/02/26 07:22:55;;;;;;;1999.90;999.90;;;12.00;99.90;;;;;;5050473;28;20487;-80
2024/02/26 07:25:21;;;;;;;1999.90;999.90;;;12.00;99.90;;;;;;5064945;28;20041;-83
2024/02/26 07:27:47;;;;;;;1999.90;999.90;;;12.00;99.90;;;;;;5061895;28;20514;-83
2024/02/26 07:30:13;;;;;;;1999.90;999.90;;;12.00;99.90;;;;;;5050645;28;20098;-83
2024/02/26 07:32:39;;;;;;;1999.90;999.90;;;12.10;99.90;;;;;;5047625;28;20032;-83
2024/02/26 07:35:05;;;;;;;1999.90;999.90;;;12.00;99.90;;;;;;5064413;28;20037;-79
2024/02/26 07:37:31;;;;;;;1999.90;999.90;;;12.10;99.90;;;;;;5049009;28;20024;-78
2024/02/26 07:39:56;;;;;;;1999.90;999.90;;;12.10;99.90;;;;;;5052039;28;20554;-80
2024/02/26 07:42:22;;;;;;;1999.90;999.90;;;12.10;99.90;;;;;;5049475;28;20024;-79
2024/02/26 07:44:48;;;;;;;1999.90;999.90;;;12.00;99.90;;;;;;5062027;28;20403;-79
2024/02/26 07:47:13;;;;;;;1999.90;999.90;;;12.00;99.90;;;;;;5057654;28;20019;-82
2024/02/26 07:49:40;;;;;;;1999.90;999.90;;;12.00;99.90;;;;;;5050641;28;20129;-80
2024/02/26 07:52:06;;;;;;;1999.90;999.90;;;12.00;99.90;;;;;;5060697;28;20043;-80
2024/02/26 07:54:32;;;;;;;1999.90;999.90;;;12.00;99.90;;;;;;5052642;28;20396;-80
2024/02/26 07:56:58;;;;;;;1999.90;999.90;;;11.90;99.90;;;;;;5048663;28;20483;-79
2024/02/26 07:59:24;;;;;;;1999.90;999.90;;;12.00;99.90;;;;;;5051818;28;20036;-78
2024/02/26 08:01:53;;;;;;;1999.90;999.90;;;12.10;99.90;;;;;;5052417;28;20029;-78
2024/02/26 08:04:18;;;;;;;1999.90;999.90;;;12.30;99.90;;;;;;5049310;28;20033;-79
2024/02/26 08:06:44;;;;;;;1999.90;999.90;;;12.80;99.90;;;;;;5052275;28;20078;-81
2024/02/26 08:09:10;;;;;;;1999.90;999.90;;;13.10;99.90;;;;;;5069996;28;20051;-80
2024/02/26 08:11:35;;;;;;;1999.90;999.90;;;13.70;99.90;;;;;;5062743;28;20060;-81
2024/02/26 08:14:01;;;;;;;1999.90;999.90;;;14.80;99.90;;;;;;5052850;28;20052;-78
2024/02/26 08:16:27;;;;;;;1999.90;999.90;;;14.00;99.90;;;;;;5049713;28;20399;-81
2024/02/26 08:18:53;;;;;;;1999.90;999.90;;;13.50;99.90;;;;;;5050474;28;20052;-80
2024/02/26 08:21:18;;;;;;;1999.90;999.90;;;14.40;99.90;;;;;;5053537;28;20029;-80
2024/02/26 08:23:44;;;;;;;1999.90;999.90;;;14.50;99.90;;;;;;5055182;28;20029;-82
2024/02/26 08:26:11;;;;;;;1999.90;999.90;;;13.10;99.90;;;;;;5061070;28;20029;-79
2024/02/26 08:28:39;;;;;;;1999.90;999.90;;;12.40;99.90;;;;;;5055718;28;20079;-78
2024/02/26 08:31:05;;;;;;;1999.90;999.90;;;12.10;99.90;;;;;;5057151;28;20036;-79
2024/02/26 08:33:31;;;;;;;1999.90;999.90;;;11.90;99.90;;;;;;5064755;28;20021;-81
2024/02/26 08:35:57;;;;;;;1999.90;999.90;;;11.80;99.90;;;;;;5071383;28;20103;-79
2024/02/26 08:38:22;;;;;;;1999.90;999.90;;;11.90;99.90;;;;;;5056518;28;20059;-79
2024/02/26 08:40:49;;;;;;;1999.90;999.90;;;11.90;99.90;;;;;;5061120;28;20043;-80
2024/02/26 08:43:14;;;;;;;1999.90;999.90;;;12.10;99.90;;;;;;5059617;28;20043;-80
2024/02/26 08:45:40;;;;;;;1999.90;999.90;;;12.20;99.90;;;;;;5065425;28;20105;-80
2024/02/26 08:48:07;;;;;;;1999.90;999.90;;;11.60;99.90;;;;;;5059159;28;20021;-80
2024/02/26 08:50:33;;;;;;;1999.90;999.90;;;11.20;99.90;;;;;;5054653;28;20017;-80
2024/02/26 08:53:00;;;;;;;1999.90;999.90;;;11.00;99.90;;;;;;5060125;28;20532;-79
2024/02/26 08:55:26;;;;;;;1999.90;999.90;;;11.20;99.90;;;;;;5058593;28;20082;-79
2024/02/26 08:57:52;;;;;;;1999.90;999.90;;;11.30;99.90;;;;;;5060636;28;20511;-79
2024/02/26 09:00:20;;;;;;;1999.90;999.90;;;11.30;99.90;;;;;;5074403;28;20167;-80
2024/02/26 09:02:47;;;;;;;1999.90;999.90;;;11.20;99.90;;;;;;5072734;28;20033;-80
2024/02/26 09:05:13;;;;;;;1999.90;999.90;;;11.30;99.90;;;;;;5053114;28;20052;-80
2024/02/26 09:07:39;;;;;;;1999.90;999.90;;;11.30;99.90;;;;;;5051908;28;20566;-79
2024/02/26 09:10:05;;;;;;;1999.90;999.90;;;11.30;99.90;;;;;;5051059;28;20025;-79
2024/02/26 09:12:31;;;;;;;1999.90;999.90;;;11.30;99.90;;;;;;5051692;28;20029;-79
2024/02/26 09:14:57;;;;;;;1999.90;999.90;;;11.10;99.90;;;;;;5055349;28;20395;-80
2024/02/26 09:17:23;;;;;;;1999.90;999.90;;;11.10;99.90;;;;;;5053097;28;20530;-79
2024/02/26 09:19:48;;;;;;;1999.90;999.90;;;11.10;99.90;;;;;;5054465;28;20029;-82
2024/02/26 09:22:14;;;;;;;1999.90;999.90;;;11.00;99.90;;;;;;5070926;28;20041;-81
2024/02/26 09:24:40;;;;;;;1999.90;999.90;;;11.00;99.90;;;;;;5072317;28;20025;-80
2024/02/26 09:27:06;;;;;;;1999.90;999.90;;;11.10;99.90;;;;;;5059591;28;20095;-79
2024/02/26 09:29:32;;;;;;;1999.90;999.90;;;11.20;99.90;;;;;;5053378;28;20048;-79
2024/02/26 09:31:58;;;;;;;1999.90;999.90;;;11.20;99.90;;;;;;5051860;28;20087;-78
2024/02/26 09:34:24;;;;;;;1999.90;999.90;;;11.40;99.90;;;;;;5052801;28;20544;-79
2024/02/26 09:36:49;;;;;;;1999.90;999.90;;;11.30;99.90;;;;;;5055668;28;20033;-81
2024/02/26 09:39:20;;;;;;;1999.90;999.90;;;11.40;99.90;;;;;;5052712;28;20052;-78
2024/02/26 09:41:46;;;;;;;1999.90;999.90;;;11.40;99.90;;;;;;5068976;28;20036;-79
2024/02/26 09:44:15;;;;;;;1999.90;999.90;;;11.30;99.90;;;;;;5058143;28;20025;-79
2024/02/26 09:46:41;;;;;;;1999.90;999.90;;;11.10;99.90;;;;;;5063877;28;20502;-78
2024/02/26 09:49:08;;;;;;;1999.90;999.90;;;10.90;99.90;;;;;;5055461;28;20021;-79
2024/02/26 09:51:34;;;;;;;1999.90;999.90;;;10.70;99.90;;;;;;5077353;28;20086;-80
2024/02/26 09:54:01;;;;;;;1999.90;999.90;;;10.70;99.90;;;;;;5056173;28;20373;-79
2024/02/26 09:56:27;;;;;;;1999.90;999.90;;;10.70;99.90;;;;;;5057879;28;20066;-79
2024/02/26 09:58:55;;;;;;;1999.90;999.90;;;10.70;99.90;;;;;;5058822;28;20438;-79
2024/02/26 10:01:21;;;;;;;1999.90;999.90;;;10.40;99.90;;;;;;5055016;28;20017;-78
2024/02/26 10:03:55;;;;;;;1999.90;999.90;;;10.20;99.90;;;;;;5053570;28;20499;-77
2024/02/26 10:06:21;;;;;;;1999.90;999.90;;;10.20;99.90;;;;;;5056490;28;20013;-79
2024/02/26 10:08:48;;;;;;;1999.90;999.90;;;10.10;99.90;;;;;;5061153;28;20056;-79
2024/02/26 10:11:15;;;;;;;1999.90;999.90;;;10.20;99.90;;;;;;5056921;28;20498;-80
2024/02/26 10:13:41;;;;;;;1999.90;999.90;;;10.40;99.90;;;;;;5074334;28;20033;-80
2024/02/26 10:16:07;;;;;;;1999.90;999.90;;;10.60;99.90;;;;;;5053791;28;20025;-79
2024/02/26 10:18:49;;;;;;;1999.90;999.90;;;11.00;99.90;;;;;;5052043;28;20047;-78
2024/02/26 10:21:20;;;;;;;1999.90;999.90;;;11.30;99.90;;;;;;5052651;28;20033;-77
2024/02/26 10:23:47;;;;;;;1999.90;999.90;;;11.30;99.90;;;;;;5060342;28;20048;-78
2024/02/26 10:26:14;;;;;;;1999.90;999.90;;;11.40;99.90;;;;;;5053501;28;20025;-78
2024/02/26 10:28:44;;;;;;;1999.90;999.90;;;11.20;99.90;;;;;;5056060;28;20500;-77
2024/02/26 10:31:10;;;;;;;1999.90;999.90;;;11.10;99.90;;;;;;5052906;28;20033;-77
2024/02/26 10:33:37;;;;;;;1999.90;999.90;;;11.00;99.90;;;;;;5057997;28;20553;-79
2024/02/26 10:36:10;;;;;;;1999.90;999.90;;;10.80;99.90;;;;;;5050747;28;20484;-77
2024/02/26 10:38:37;;;;;;;1999.90;999.90;;;10.80;99.90;;;;;;5050619;28;20124;-79
2024/02/26 10:41:04;;;;;;;1999.90;999.90;;;11.30;99.90;;;;;;5045227;28;20041;-78
2024/02/26 10:43:29;;;;;;;1999.90;999.90;;;11.50;99.90;;;;;;5057949;28;20036;-77
2024/02/26 10:45:58;;;;;;;1999.90;999.90;;;11.50;99.90;;;;;;5054732;28;20063;-78
2024/02/26 10:48:24;;;;;;;1999.90;999.90;;;11.60;99.90;;;;;;5055108;28;20044;-78
2024/02/26 10:50:50;;;;;;;1999.90;999.90;;;11.80;99.90;;;;;;5051449;28;20743;-78
2024/02/26 10:53:24;;;;;;;1999.90;999.90;;;12.20;99.90;;;;;;5062918;28;20060;-79
2024/02/26 10:55:57;;;;;;;1999.90;999.90;;;12.80;99.90;;;;;;5051770;28;20060;-81
2024/02/26 10:58:24;;;;;;;1999.90;999.90;;;13.40;99.90;;;;;;5057296;28;20031;-79
2024/02/26 11:00:51;;;;;;;1999.90;999.90;;;13.90;99.90;;;;;;5057175;28;20025;-79
2024/02/26 11:03:20;;;;;;;1999.90;999.90;;;13.60;99.90;;;;;;5067406;28;20025;-80
2024/02/26 11:05:48;;;;;;;1999.90;999.90;;;12.90;99.90;;;;;;5051698;28;20103;-79
2024/02/26 11:08:14;;;;;;;1999.90;999.90;;;12.50;99.90;;;;;;5032419;28;20021;-80
2024/02/26 11:10:42;;;;;;;1999.90;999.90;;;12.30;99.90;;;;;;5034370;28;20026;-79
2024/02/26 11:13:12;;;;;;;1999.90;999.90;;;12.20;99.90;;;;;;5036745;28;20151;-80
2024/02/26 11:15:38;;;;;;;1999.90;999.90;;;12.30;99.90;;;;;;5053247;28;20025;-80
2024/02/26 11:18:05;;;;;;;1999.90;999.90;;;12.60;99.90;;;;;;5070476;28;20044;-79
2024/02/26 11:20:33;;;;;;;1999.90;999.90;;;13.00;99.90;;;;;;5073840;28;20041;-81
2024/02/26 11:23:00;;;;;;;1999.90;999.90;;;13.10;99.90;;;;;;5060494;28;20048;-79
2024/02/26 11:25:25;;;;;;;1999.90;999.90;;;13.00;99.90;;;;;;5071700;28;20021;-79
2024/02/26 11:27:57;;;;;;;1999.90;999.90;;;13.10;99.90;;;;;;5057367;28;20111;-79
2024/02/26 11:30:25;;;;;;;1999.90;999.90;;;13.00;99.90;;;;;;5051213;28;20032;-80
2024/02/26 11:32:53;;;;;;;1999.90;999.90;;;12.70;99.90;;;;;;5051002;28;20024;-79
2024/02/26 11:35:19;;;;;;;1999.90;999.90;;;12.30;99.90;;;;;;5052468;28;20029;-79
2024/02/26 11:37:56;;;;;;;1999.90;999.90;;;12.20;99.90;;;;;;5065024;28;20085;-79
2024/02/26 11:40:25;;;;;;;1999.90;999.90;;;12.30;99.90;;;;;;5036271;28;20029;-78
2024/02/26 11:42:53;;;;;;;1999.90;999.90;;;12.50;99.90;;;;;;5055464;28;20040;-79
2024/02/26 11:45:46;;;;;;;1999.90;999.90;;;12.30;99.90;;;;;;5068581;28;20024;-80
2024/02/26 11:48:12;;;;;;;1999.90;999.90;;;12.40;99.90;;;;;;5056259;28;20128;-79
2024/02/26 11:50:43;;;;;;;1999.90;999.90;;;12.50;99.90;;;;;;5054781;28;20032;-78
2024/02/26 11:53:30;;;;;;;1999.90;999.90;;;12.60;99.90;;;;;;5050117;28;20029;-78
2024/02/26 11:56:27;;;;;;;1999.90;999.90;;;12.50;99.90;;;;;;5046096;28;20087;-79